createdAt,value
2023-10-26T00:00:49.247Z,13.42
2023-10-26T00:05:51.230Z,13.18
2023-10-26T00:10:54.240Z,13.42
2023-10-26T00:15:58.486Z,13.28
2023-10-26T00:21:01.576Z,13.53
2023-10-26T00:26:03.808Z,13.42
2023-10-26T00:31:05.557Z,13.48
2023-10-26T00:36:08.067Z,13.43
2023-10-26T00:41:12.088Z,13.53
2023-10-26T00:46:14.502Z,13.48
2023-10-26T00:51:16.699Z,13.52
2023-10-26T00:56:22.621Z,13.58
2023-10-26T01:01:25.751Z,13.47
2023-10-26T01:06:27.861Z,13.58
2023-10-26T01:11:32.504Z,13.56
2023-10-26T01:16:37.316Z,13.57
2023-10-26T01:21:55.180Z,13.46
2023-10-26T01:26:57.379Z,13.68
2023-10-26T01:32:00.054Z,13.73
2023-10-26T01:37:05.542Z,13.65
2023-10-26T01:42:11.507Z,13.60
2023-10-26T01:47:15.729Z,13.60
2023-10-26T01:52:17.974Z,13.62
2023-10-26T01:57:20.048Z,13.62
2023-10-26T02:02:21.956Z,13.74
2023-10-26T02:07:23.762Z,13.84
2023-10-26T02:12:25.668Z,13.91
2023-10-26T02:17:27.492Z,13.78
2023-10-26T02:22:29.260Z,13.48
2023-10-26T02:27:35.294Z,13.87
2023-10-26T02:32:37.443Z,13.70
2023-10-26T02:37:42.470Z,13.71
2023-10-26T02:42:44.412Z,13.82
2023-10-26T02:47:46.287Z,13.71
2023-10-26T02:52:50.315Z,13.83
2023-10-26T02:57:52.375Z,13.91
2023-10-26T03:02:57.035Z,13.87
2023-10-26T03:07:59.092Z,13.77
2023-10-26T03:13:00.948Z,14.04
2023-10-26T03:18:03.179Z,13.96
2023-10-26T03:23:05.427Z,13.88
2023-10-26T03:28:07.383Z,13.92
2023-10-26T03:33:11.478Z,13.60
2023-10-26T03:38:15.934Z,13.84
2023-10-26T03:43:20.162Z,14.43
2023-10-26T03:48:22.221Z,14.63
2023-10-26T03:53:24.149Z,14.80
2023-10-26T03:58:27.398Z,12.22
2023-10-26T04:03:31.502Z,11.66
2023-10-26T04:08:33.497Z,11.54
2023-10-26T04:13:35.931Z,11.44
2023-10-26T04:18:37.809Z,11.48
2023-10-26T04:23:39.757Z,11.50
2023-10-26T04:28:51.466Z,11.44
2023-10-26T04:33:54.035Z,11.66
2023-10-26T04:38:56.254Z,11.70
2023-10-26T04:43:58.361Z,11.42
2023-10-26T04:49:00.352Z,11.59
2023-10-26T04:54:07.062Z,11.51
2023-10-26T04:59:09.094Z,11.63
2023-10-26T05:04:11.723Z,11.60
2023-10-26T05:09:13.595Z,11.58
2023-10-26T05:14:15.590Z,11.50
2023-10-26T05:19:17.518Z,11.39
2023-10-26T05:24:19.333Z,11.57
2023-10-26T05:29:21.167Z,11.68
2023-10-26T05:34:23.658Z,11.70
2023-10-26T05:39:25.597Z,11.71
2023-10-26T05:44:29.350Z,11.69
2023-10-26T05:49:31.376Z,11.39
2023-10-26T05:54:33.278Z,11.41
2023-10-26T05:59:35.207Z,11.46
2023-10-26T06:04:39.177Z,11.51
2023-10-26T06:09:41.367Z,11.49
2023-10-26T06:14:43.491Z,11.26
2023-10-26T06:19:45.638Z,11.37
2023-10-26T06:24:47.648Z,11.48
2023-10-26T06:29:53.385Z,11.48
2023-10-26T06:34:58.141Z,11.39
2023-10-26T06:40:00.711Z,11.35
2023-10-26T06:45:04.237Z,11.44
2023-10-26T06:50:07.828Z,11.15
2023-10-26T06:55:30.464Z,11.24
2023-10-26T07:00:35.649Z,11.38
2023-10-26T07:05:37.765Z,11.29
2023-10-26T07:10:41.291Z,11.15
2023-10-26T07:15:43.347Z,11.07
2023-10-26T07:20:46.408Z,11.30
2023-10-26T07:25:49.988Z,11.30
2023-10-26T07:30:53.317Z,11.24
2023-10-26T07:35:57.687Z,11.44
2023-10-26T07:41:04.526Z,11.31
2023-10-26T07:46:06.963Z,11.37
2023-10-26T07:51:11.681Z,11.25
2023-10-26T07:56:13.552Z,11.21
2023-10-26T08:01:15.914Z,11.42
2023-10-26T08:06:17.719Z,11.14
2023-10-26T08:11:19.510Z,11.41
2023-10-26T08:16:43.924Z,11.38
2023-10-26T08:21:43.444Z,11.34
2023-10-26T08:26:45.340Z,11.60
2023-10-26T08:31:47.189Z,11.59
2023-10-26T08:37:02.070Z,11.46
2023-10-26T08:42:15.309Z,11.48
2023-10-26T08:47:22.933Z,11.46
2023-10-26T08:52:28.260Z,11.46
2023-10-26T08:57:31.545Z,11.39
2023-10-26T09:02:33.836Z,11.67
2023-10-26T09:07:36.744Z,11.64
2023-10-26T09:12:38.826Z,11.68
2023-10-26T09:17:45.201Z,11.50
2023-10-26T09:22:47.211Z,11.66
2023-10-26T09:27:49.120Z,11.65
2023-10-26T09:32:51.152Z,11.77
2023-10-26T09:37:53.299Z,11.88
2023-10-26T09:42:59.161Z,12.04
2023-10-26T09:48:06.255Z,12.08
2023-10-26T09:58:21.752Z,11.96
2023-10-26T10:03:23.866Z,12.30
2023-10-26T10:09:00.981Z,12.30
2023-10-26T10:14:05.269Z,12.17
2023-10-26T10:19:24.782Z,12.23
2023-10-26T10:24:38.953Z,12.36
2023-10-26T10:29:44.137Z,12.28
2023-10-26T10:34:47.160Z,12.11
2023-10-26T10:40:14.109Z,12.40
2023-10-26T10:45:19.699Z,12.43
2023-10-26T10:50:27.782Z,12.41
2023-10-26T10:55:31.177Z,12.56
2023-10-26T11:00:47.555Z,12.49
2023-10-26T11:05:53.192Z,12.46
2023-10-26T11:10:55.807Z,12.65
2023-10-26T11:15:57.689Z,12.86
2023-10-26T11:21:00.369Z,12.85
2023-10-26T11:26:14.895Z,12.77
2023-10-26T11:31:17.057Z,12.81
2023-10-26T11:36:21.458Z,12.77
2023-10-26T11:41:27.239Z,13.06
2023-10-26T11:46:30.089Z,13.07
2023-10-26T11:51:32.896Z,12.94
2023-10-26T11:56:34.762Z,13.10
2023-10-26T12:01:36.744Z,13.05
2023-10-26T12:06:41.189Z,13.04
2023-10-26T12:11:47.897Z,13.01
2023-10-26T12:16:50.334Z,13.19
2023-10-26T12:21:55.820Z,13.12
2023-10-26T12:27:00.828Z,13.10
2023-10-26T12:32:02.657Z,12.98
2023-10-26T12:37:05.588Z,13.05
2023-10-26T12:42:07.470Z,13.21
2023-10-26T12:47:09.324Z,13.14
2023-10-26T12:52:11.213Z,13.15
2023-10-26T12:57:12.967Z,13.39
2023-10-26T13:02:14.742Z,13.33
2023-10-26T13:07:19.303Z,13.25
2023-10-26T13:12:21.161Z,13.54
2023-10-26T13:17:22.963Z,13.27
2023-10-26T13:22:27.142Z,13.08
2023-10-26T13:27:29.017Z,12.58
2023-10-26T13:32:31.025Z,12.64
2023-10-26T13:37:33.175Z,12.45
2023-10-26T13:42:35.046Z,12.43
2023-10-26T13:47:37.019Z,12.91
2023-10-26T13:52:38.933Z,12.92
2023-10-26T13:57:40.708Z,13.21
2023-10-26T14:02:42.488Z,13.11
2023-10-26T14:07:48.159Z,13.10
2023-10-26T14:12:50.184Z,13.28
2023-10-26T14:17:51.990Z,13.40
2023-10-26T14:22:54.106Z,13.54
2023-10-26T14:27:58.439Z,13.53
2023-10-26T14:33:00.211Z,13.56
2023-10-26T14:38:02.837Z,13.28
2023-10-26T14:43:04.714Z,13.49
2023-10-26T14:48:09.606Z,13.29
2023-10-26T14:53:11.652Z,13.47
2023-10-26T14:58:16.295Z,13.34
2023-10-26T15:03:18.156Z,13.34
2023-10-26T15:08:20.371Z,13.09
2023-10-26T15:13:23.786Z,13.09
2023-10-26T15:18:28.850Z,13.24
2023-10-26T15:23:30.672Z,13.28
2023-10-26T15:28:36.447Z,13.37
2023-10-26T15:33:39.442Z,13.26
2023-10-26T15:38:42.960Z,13.24
2023-10-26T15:43:44.946Z,13.17
2023-10-26T15:49:31.484Z,13.19
2023-10-26T15:54:09.496Z,13.27
2023-10-26T15:59:11.433Z,13.36
2023-10-26T16:04:13.300Z,13.11
2023-10-26T16:09:15.321Z,13.35
2023-10-26T16:14:17.160Z,13.24
2023-10-26T16:19:18.982Z,13.22
2023-10-26T16:24:21.161Z,13.19
2023-10-26T16:29:23.237Z,13.13
2023-10-26T16:34:25.113Z,13.07
2023-10-26T16:39:29.258Z,12.98
2023-10-26T16:44:31.083Z,12.88
2023-10-26T16:49:33.046Z,13.07
2023-10-26T16:54:35.650Z,12.77
2023-10-26T16:59:38.666Z,12.63
2023-10-26T17:04:41.649Z,12.43
2023-10-26T17:09:43.911Z,12.59
2023-10-26T17:14:51.682Z,12.65
2023-10-26T17:19:54.093Z,12.60
2023-10-26T17:24:56.691Z,12.64
2023-10-26T17:29:58.592Z,12.54
2023-10-26T17:35:00.608Z,12.44
2023-10-26T17:40:03.188Z,12.56
2023-10-26T17:45:05.760Z,12.42
2023-10-26T17:50:07.957Z,12.47
2023-10-26T17:55:10.414Z,12.18
2023-10-26T18:00:12.843Z,12.36
2023-10-26T18:05:16.209Z,12.29
2023-10-26T18:10:21.068Z,12.27
2023-10-26T18:15:23.393Z,12.34
2023-10-26T18:20:27.416Z,12.26
2023-10-26T18:25:29.290Z,12.46
2023-10-26T18:30:33.533Z,12.22
2023-10-26T18:35:35.343Z,12.40
2023-10-26T18:40:39.164Z,12.47
2023-10-26T18:45:41.149Z,12.16
2023-10-26T18:50:50.074Z,12.21
2023-10-26T18:55:54.530Z,12.39
2023-10-26T19:00:58.610Z,12.29
2023-10-26T19:06:03.944Z,12.15
2023-10-26T19:11:05.812Z,12.31
2023-10-26T19:16:07.977Z,12.30
2023-10-26T19:21:12.442Z,12.18
2023-10-26T19:26:15.584Z,12.35
2023-10-26T19:31:19.902Z,12.00
2023-10-26T19:36:21.978Z,12.17
2023-10-26T19:41:26.280Z,12.16
2023-10-26T19:46:30.562Z,12.28
2023-10-26T19:51:33.158Z,11.98
2023-10-26T19:56:35.158Z,11.90
2023-10-26T20:01:37.111Z,11.97
2023-10-26T20:06:39.629Z,11.91
2023-10-26T20:11:43.965Z,11.90
2023-10-26T20:16:46.644Z,11.89
2023-10-26T20:21:52.107Z,11.79
2023-10-26T20:26:54.102Z,11.93
2023-10-26T20:31:56.491Z,11.82
2023-10-26T20:36:58.840Z,11.99
2023-10-26T20:42:03.672Z,11.90
2023-10-26T20:47:06.615Z,11.69
2023-10-26T20:52:08.855Z,11.72
2023-10-26T20:57:10.696Z,11.92
2023-10-26T21:02:12.970Z,11.68
2023-10-26T21:07:14.820Z,11.83
2023-10-26T21:12:19.282Z,11.59
2023-10-26T21:17:24.848Z,11.71
2023-10-26T21:22:27.130Z,11.48
2023-10-26T21:27:28.916Z,11.69
2023-10-26T21:32:30.917Z,11.60
2023-10-26T21:37:33.033Z,11.67
2023-10-26T21:42:34.863Z,11.42
2023-10-26T21:47:36.711Z,11.48
2023-10-26T21:52:38.587Z,11.48
2023-10-26T21:57:40.378Z,11.40
2023-10-26T22:02:43.652Z,11.49
2023-10-26T22:07:45.551Z,11.47
2023-10-26T22:12:50.067Z,11.36
2023-10-26T22:17:54.938Z,11.52
2023-10-26T22:22:56.776Z,11.41
2023-10-26T22:27:58.890Z,11.34
2023-10-26T22:33:00.772Z,11.38
2023-10-26T22:38:02.623Z,11.17
2023-10-26T22:43:04.808Z,11.03
2023-10-26T22:48:06.851Z,11.02
2023-10-26T22:53:08.760Z,10.97
2023-10-26T22:58:10.899Z,11.10
2023-10-26T23:03:12.954Z,11.06
2023-10-26T23:08:15.862Z,10.99
2023-10-26T23:13:17.662Z,10.83
2023-10-26T23:18:19.516Z,10.72
2023-10-26T23:23:21.406Z,10.97
2023-10-26T23:28:23.448Z,10.76
2023-10-26T23:33:25.466Z,11.05
2023-10-26T23:38:28.213Z,10.83
2023-10-26T23:43:30.194Z,10.87
2023-10-26T23:48:32.094Z,10.60
2023-10-26T23:53:35.977Z,10.82
2023-10-26T23:58:40.289Z,11.03
